createdAt,value
2019-04-14T00:00:27.833Z,21.68
2019-04-14T00:05:34.033Z,21.67
2019-04-14T00:10:37.884Z,21.67
2019-04-14T00:15:45.743Z,21.67
2019-04-14T00:20:49.037Z,21.67
2019-04-14T00:25:54.366Z,21.69
2019-04-14T00:30:59.850Z,21.69
2019-04-14T00:36:11.545Z,21.70
2019-04-14T00:41:41.414Z,21.70
2019-04-14T00:46:43.410Z,21.68
2019-04-14T00:51:48.527Z,21.67
2019-04-14T00:56:52.660Z,21.66
2019-04-14T01:01:56.984Z,21.65
2019-04-14T01:07:01.980Z,21.64
2019-04-14T01:12:06.462Z,21.64
2019-04-14T01:17:11.278Z,21.56
2019-04-14T01:22:16.268Z,21.65
2019-04-14T01:27:21.108Z,21.65
2019-04-14T01:32:26.127Z,21.63
2019-04-14T01:37:31.163Z,21.63
2019-04-14T01:42:35.559Z,21.63
2019-04-14T01:47:40.000Z,21.57
2019-04-14T01:53:05.841Z,21.64
2019-04-14T01:58:16.430Z,21.64
2019-04-14T02:03:21.719Z,21.63
2019-04-14T02:08:26.319Z,21.60
2019-04-14T02:13:31.117Z,21.60
2019-04-14T02:18:36.200Z,21.61
2019-04-14T02:23:41.142Z,21.61
2019-04-14T02:28:46.159Z,21.59
2019-04-14T02:39:36.448Z,21.58
2019-04-14T02:44:32.120Z,21.57
2019-04-14T02:49:38.608Z,21.49
2019-04-14T02:54:51.912Z,21.57
2019-04-14T02:59:49.864Z,21.58
2019-04-14T03:04:50.785Z,21.58
2019-04-14T03:10:13.021Z,21.48
2019-04-14T03:15:01.426Z,21.48
2019-04-14T03:20:20.552Z,21.58
2019-04-14T03:25:49.488Z,21.48
2019-04-14T03:36:44.134Z,21.56
2019-04-14T03:41:25.936Z,21.54
2019-04-14T03:46:36.447Z,21.55
2019-04-14T03:51:40.500Z,21.54
2019-04-14T03:56:46.694Z,21.54
2019-04-14T04:01:52.118Z,21.53
2019-04-14T04:06:57.487Z,21.53
2019-04-14T04:12:01.945Z,21.54
2019-04-14T04:17:25.447Z,21.51
2019-04-14T04:22:58.505Z,21.51
2019-04-14T04:28:27.834Z,21.48
2019-04-14T04:33:39.747Z,21.49
2019-04-14T04:38:51.080Z,21.48
2019-04-14T04:43:56.041Z,21.48
2019-04-14T04:49:10.885Z,21.47
2019-04-14T04:54:06.133Z,21.46
2019-04-14T04:59:10.188Z,21.45
2019-04-14T05:04:15.329Z,21.46
2019-04-14T05:09:29.563Z,21.44
2019-04-14T05:14:41.995Z,21.44
2019-04-14T05:19:46.132Z,21.41
2019-04-14T05:24:51.327Z,21.39
2019-04-14T05:29:55.869Z,21.41
2019-04-14T05:35:00.876Z,21.38
2019-04-14T05:40:05.905Z,21.38
2019-04-14T05:45:11.180Z,21.33
2019-04-14T05:50:15.869Z,21.32
2019-04-14T05:55:20.215Z,21.30
2019-04-14T06:00:25.561Z,21.30
2019-04-14T06:05:29.862Z,21.28
2019-04-14T06:10:34.607Z,21.13
2019-04-14T06:15:38.654Z,21.22
2019-04-14T06:20:42.687Z,21.17
2019-04-14T06:25:46.713Z,21.19
2019-04-14T06:31:19.126Z,21.14
2019-04-14T06:36:47.942Z,21.11
2019-04-14T06:41:51.977Z,21.10
2019-04-14T06:46:56.007Z,21.09
2019-04-14T06:52:00.108Z,21.06
2019-04-14T06:57:04.384Z,21.06
2019-04-14T07:02:08.784Z,19.71
2019-04-14T07:07:12.865Z,16.57
2019-04-14T07:12:17.103Z,16.57
2019-04-14T07:17:21.154Z,19.49
2019-04-14T07:22:25.172Z,19.49
2019-04-14T07:27:29.189Z,21.01
2019-04-14T07:32:57.921Z,21.35
2019-04-14T07:38:20.922Z,21.52
2019-04-14T07:43:39.489Z,21.46
2019-04-14T07:48:50.522Z,21.32
2019-04-14T07:53:58.627Z,21.24
2019-04-14T07:59:37.340Z,21.24
2019-04-14T08:04:46.391Z,21.18
2019-04-14T08:09:50.716Z,21.14
2019-04-14T08:14:54.739Z,21.22
2019-04-14T08:19:59.059Z,21.22
2019-04-14T08:25:03.260Z,21.23
2019-04-14T08:30:08.300Z,21.23
2019-04-14T08:35:12.544Z,21.21
2019-04-14T08:40:16.679Z,21.21
2019-04-14T08:45:32.115Z,21.21
2019-04-14T08:50:44.375Z,21.20
2019-04-14T08:56:01.440Z,21.19
2019-04-14T09:01:15.712Z,21.17
2019-04-14T09:06:33.735Z,21.17
2019-04-14T09:11:42.392Z,21.17
2019-04-14T09:16:46.575Z,21.21
2019-04-14T09:21:50.613Z,21.22
2019-04-14T09:26:54.637Z,21.22
2019-04-14T09:31:59.127Z,21.21
2019-04-14T09:37:03.253Z,21.23
2019-04-14T09:42:07.492Z,21.24
2019-04-14T09:47:11.522Z,21.27
2019-04-14T09:52:15.710Z,21.17
2019-04-14T09:57:19.772Z,21.14
2019-04-14T10:02:23.883Z,21.03
2019-04-14T10:07:27.936Z,21.16
2019-04-14T10:12:32.219Z,21.16
2019-04-14T10:17:36.324Z,21.18
2019-04-14T10:22:40.457Z,21.16
2019-04-14T10:27:44.520Z,21.14
2019-04-14T10:32:48.652Z,21.17
2019-04-14T10:37:52.803Z,21.04
2019-04-14T10:42:56.965Z,21.17
2019-04-14T10:48:01.124Z,21.17
2019-04-14T10:53:05.435Z,21.04
2019-04-14T10:58:09.599Z,21.00
2019-04-14T11:03:13.807Z,20.92
2019-04-14T11:08:17.976Z,20.81
2019-04-14T11:13:22.027Z,20.80
2019-04-14T11:18:26.177Z,20.80
2019-04-14T11:23:30.277Z,20.82
2019-04-14T11:28:34.347Z,20.77
2019-04-14T11:33:56.291Z,20.77
2019-04-14T11:39:06.705Z,20.80
2019-04-14T11:44:10.853Z,20.79
2019-04-14T11:49:15.033Z,20.79
2019-04-14T11:54:19.145Z,20.71
2019-04-14T11:59:32.861Z,20.65
2019-04-14T12:05:07.993Z,20.67
2019-04-14T12:10:14.797Z,20.61
2019-04-14T12:15:18.906Z,20.58
2019-04-14T12:20:22.954Z,20.58
2019-04-14T12:25:27.088Z,20.57
2019-04-14T12:30:31.327Z,20.52
2019-04-14T12:35:35.397Z,20.59
2019-04-14T12:40:40.237Z,20.57
2019-04-14T12:46:06.164Z,20.49
2019-04-14T12:51:14.256Z,20.48
2019-04-14T12:56:21.586Z,20.54
2019-04-14T13:01:27.146Z,20.54
2019-04-14T13:06:31.328Z,20.67
2019-04-14T13:11:35.345Z,20.67
2019-04-14T13:16:39.566Z,20.92
2019-04-14T13:21:43.660Z,20.92
2019-04-14T13:26:47.890Z,21.03
2019-04-14T13:31:51.926Z,20.82
2019-04-14T13:36:55.965Z,20.81
2019-04-14T13:42:00.158Z,20.75
2019-04-14T13:47:04.376Z,20.77
2019-04-14T13:52:08.435Z,20.87
2019-04-14T13:57:12.574Z,20.88
2019-04-14T14:02:16.850Z,20.90
2019-04-14T14:07:20.962Z,20.89
2019-04-14T14:12:33.480Z,20.88
2019-04-14T14:17:43.490Z,20.90
2019-04-14T14:23:05.501Z,20.89
2019-04-14T14:28:09.785Z,20.90
2019-04-14T14:33:14.009Z,20.91
2019-04-14T14:38:18.110Z,20.91
2019-04-14T14:43:22.181Z,20.81
2019-04-14T14:48:32.521Z,20.82
2019-04-14T14:53:36.656Z,20.82
2019-04-14T14:58:40.728Z,20.91
2019-04-14T15:03:44.867Z,20.92
2019-04-14T15:08:48.895Z,20.92
2019-04-14T15:13:52.960Z,20.92
2019-04-14T15:18:57.175Z,20.92
2019-04-14T15:24:01.304Z,20.93
2019-04-14T15:29:05.592Z,20.92
2019-04-14T15:34:10.759Z,20.94
2019-04-14T15:39:15.071Z,20.93
2019-04-14T15:44:19.122Z,20.85
2019-04-14T15:49:23.243Z,20.95
2019-04-14T15:54:27.446Z,20.94
2019-04-14T15:59:56.765Z,20.94
2019-04-14T16:05:09.247Z,20.94
2019-04-14T16:10:21.728Z,21.76
2019-04-14T16:15:40.523Z,21.76
2019-04-14T16:20:45.026Z,22.33
2019-04-14T16:26:04.048Z,22.32
2019-04-14T16:31:43.178Z,22.56
2019-04-14T16:36:47.783Z,22.56
2019-04-14T16:41:51.871Z,22.58
2019-04-14T16:46:56.036Z,22.63
2019-04-14T16:52:02.820Z,22.64
2019-04-14T16:57:24.783Z,22.64
2019-04-14T17:02:29.116Z,22.68
2019-04-14T17:07:33.159Z,22.52
2019-04-14T17:12:37.411Z,22.51
2019-04-14T17:18:04.727Z,22.49
2019-04-14T17:23:26.319Z,22.49
2019-04-14T17:28:53.540Z,22.68
2019-04-14T17:34:06.567Z,22.74
2019-04-14T17:39:26.942Z,22.72
2019-04-14T17:44:35.249Z,22.68
2019-04-14T17:50:04.261Z,22.59
2019-04-14T17:55:27.531Z,22.59
2019-04-14T18:00:47.049Z,22.51
2019-04-14T18:05:55.026Z,22.45
2019-04-14T18:11:04.783Z,22.65
2019-04-14T18:16:25.594Z,22.79
2019-04-14T18:21:29.808Z,22.84
2019-04-14T18:26:34.325Z,22.77
2019-04-14T18:32:15.585Z,22.77
2019-04-14T18:37:24.942Z,22.52
2019-04-14T18:42:36.775Z,22.41
2019-04-14T18:47:57.986Z,22.40
2019-04-14T18:53:11.816Z,22.36
2019-04-14T18:58:34.655Z,22.65
2019-04-14T19:03:38.759Z,22.86
2019-04-14T19:08:43.030Z,22.83
2019-04-14T19:13:47.659Z,22.75
2019-04-14T19:18:55.317Z,22.54
2019-04-14T19:23:59.450Z,22.51
2019-04-14T19:29:06.476Z,22.51
2019-04-14T19:34:10.677Z,22.42
2019-04-14T19:39:14.895Z,22.25
2019-04-14T19:44:18.997Z,22.17
2019-04-14T19:49:23.038Z,22.12
2019-04-14T19:54:27.234Z,22.08
2019-04-14T19:59:31.333Z,21.86
2019-04-14T20:04:35.437Z,21.89
2019-04-14T20:09:39.477Z,21.88
2019-04-14T20:14:43.487Z,21.88
2019-04-14T20:19:59.324Z,21.81
2019-04-14T20:25:33.897Z,21.80
2019-04-14T20:30:48.729Z,21.80
2019-04-14T20:35:52.808Z,21.76
2019-04-14T20:40:56.851Z,21.78
2019-04-14T20:46:00.911Z,21.78
2019-04-14T20:51:05.076Z,21.71
2019-04-14T20:56:09.224Z,21.60
2019-04-14T21:01:13.994Z,21.57
2019-04-14T21:06:32.705Z,21.67
2019-04-14T21:11:50.304Z,21.62
2019-04-14T21:16:59.373Z,21.62
2019-04-14T21:22:18.526Z,21.70
2019-04-14T21:27:31.510Z,21.62
2019-04-14T21:32:57.543Z,21.62
2019-04-14T21:38:07.068Z,21.64
2019-04-14T21:43:11.301Z,21.64
2019-04-14T21:48:15.554Z,21.70
2019-04-14T21:53:19.701Z,21.67
2019-04-14T21:58:45.513Z,21.67
2019-04-14T22:04:04.350Z,21.69
2019-04-14T22:09:15.349Z,21.58
2019-04-14T22:14:19.652Z,21.69
2019-04-14T22:19:23.906Z,21.69
2019-04-14T22:24:28.060Z,21.69
2019-04-14T22:29:32.400Z,21.71
2019-04-14T22:34:36.781Z,21.70
2019-04-14T22:39:41.027Z,21.69
2019-04-14T22:45:52.460Z,21.71
2019-04-14T22:50:56.509Z,21.68
2019-04-14T22:56:00.774Z,21.68
2019-04-14T23:01:12.715Z,21.61
2019-04-14T23:06:36.472Z,21.47
2019-04-14T23:11:47.955Z,21.47
2019-04-14T23:17:09.893Z,21.52
2019-04-14T23:22:21.403Z,21.38
2019-04-14T23:27:25.475Z,21.38
2019-04-14T23:32:29.606Z,21.39
2019-04-14T23:37:33.794Z,21.29
2019-04-14T23:42:37.909Z,21.34
2019-04-14T23:47:42.292Z,21.29
2019-04-14T23:52:46.458Z,21.29
2019-04-14T23:57:50.646Z,21.18
